Maersk Bulan — 9V7693 — position and weather

sailwx.info

Track history (hours):
 
Tides and Currents Weather Stations Pressure Air Temp Water Temp Dewpoint Dewpoint Depression Visibility Wind Speed Wind Dir Waves Ship Positions

Maersk Bulan

Last reported at 2017-Jul-19 01:20 UTC. Time now 2017-Jul-28 04:46 UTC.
Position N 34°23' W 012°31'.
Warning: this ship's position is 9 days out of date.

Length 223 m; draft 9.2 m.

Type: Ship (hazmat cat A). MMSI: 563455000.

Date/timePositionNaut miles runAvg speedWind from/ knotsBaromVisibWave heightAir tempDewpointWater temp
2017-Jul-19 01:20N 34°23' W 012°31'5417.0
2017-Jul-18 22:10N 34°39' W 011°28'316.7
2017-Jul-18 21:59N 34°40' W 011°25'5816.7
2017-Jul-18 18:32N 34°57' W 010°18'917.6
2017-Jul-18 18:01N 34°60' W 010°07'019.1
2017-Jul-18 18:00N 34°60' W 010°07'3820.0
2017-Jul-18 16:06N 35°11' W 009°22'220.3
2017-Jul-18 16:00N 35°12' W 009°20'1020.1
2017-Jul-18 15:29N 35°15' W 009°08'1219.9
2017-Jul-18 14:54N 35°18' W 008°54'1819.8
2017-Jul-18 14:00N 35°24' W 008°34'1019.9
2017-Jul-18 13:30N 35°27' W 008°22'4920.0
2017-Jul-18 11:04N 35°41' W 007°25'9120.0
2017-Jul-18 06:31N 35°57' W 005°34'119.3
2017-Jul-18 06:28N 35°57' W 005°33'5 6.5
2017-Jul-18 05:47N 35°54' W 005°30'0 0.1
2017-Jul-17 20:27N 35°53' W 005°30'3 3.6
2017-Jul-17 19:43N 35°55' W 005°33'1 4.9
2017-Jul-17 19:26N 35°54' W 005°34'0 0.4
2017-Jul-17 18:42N 35°54' W 005°34'1 1.2
2017-Jul-17 18:04N 35°55' W 005°34'1 5.4
2017-Jul-17 17:49N 35°56' W 005°35'2 5.3
2017-Jul-17 17:22N 35°57' W 005°33'2 6.0
2017-Jul-17 17:00N 35°58' W 005°30'4 7.2
2017-Jul-17 16:30N 35°59' W 005°26'4 7.0
2017-Jul-17 16:00N 35°59' W 005°22'612.7
2017-Jul-17 15:30N 35°57' W 005°14'4 1.9
2017-Jul-17 13:38N 35°55' W 005°11'  
2017-Jul-10 10:17N 36°32' W 000°47'1313.2
2017-Jul-10 09:20N 36°35' W 000°31'513.2
2017-Jul-10 08:58N 36°35' W 000°25'714.6
2017-Jul-10 08:28N 36°36' W 000°16'714.6
2017-Jul-10 07:59N 36°37' W 000°07'613.3
2017-Jul-10 07:29N 36°38' E 000°01'613.3
2017-Jul-10 07:00N 36°39' E 000°09'713.4
2017-Jul-10 06:30N 36°40' E 000°17'713.1
2017-Jul-10 06:00N 36°41' E 000°25'713.2
2017-Jul-10 05:30N 36°42' E 000°33'713.6
2017-Jul-10 05:00N 36°43' E 000°41'714.0
2017-Jul-10 04:30N 36°45' E 000°50'713.7
2017-Jul-10 03:59N 36°45' E 000°59'613.5
2017-Jul-10 03:30N 36°46' E 001°07'713.3
2017-Jul-10 03:00N 36°47' E 001°15'713.3
2017-Jul-10 02:30N 36°48' E 001°23'713.4
2017-Jul-10 02:00N 36°49' E 001°31'713.3
2017-Jul-10 01:30N 36°51' E 001°40'713.4
2017-Jul-10 01:00N 36°52' E 001°48'713.5
2017-Jul-10 00:30N 36°53' E 001°56'713.6
2017-Jul-09 23:59N 36°54' E 002°05'713.5
2017-Jul-09 23:30N 36°54' E 002°13'713.5
2017-Jul-09 23:00N 36°56' E 002°21'713.4
2017-Jul-09 22:30N 36°57' E 002°29'713.4
2017-Jul-09 22:00N 36°59' E 002°38'713.2
2017-Jul-09 21:30N 36°60' E 002°46'612.4
2017-Jul-09 21:00N 36°60' E 002°54'713.6
2017-Jul-09 20:30N 37°01' E 003°02'713.3
2017-Jul-09 20:00N 37°02' E 003°10'713.6
2017-Jul-09 19:30N 37°03' E 003°19'1913.7
2017-Jul-09 18:07N 37°05' E 003°42'113.2
2017-Jul-09 18:00N 37°06' E 003°44'713.3
2017-Jul-09 17:30N 37°07' E 003°52'713.4
2017-Jul-09 17:00N 37°08' E 004°01'713.3
2017-Jul-09 16:31N 37°09' E 004°09'713.1
2017-Jul-09 16:01N 37°09' E 004°17'713.1
2017-Jul-09 15:31N 37°11' E 004°25'612.9
2017-Jul-09 15:00N 37°12' E 004°33'713.0
2017-Jul-09 14:30N 37°13' E 004°41'713.0
2017-Jul-09 14:00N 37°14' E 004°49'612.9
2017-Jul-09 13:30N 37°16' E 004°57'612.6
2017-Jul-09 13:00N 37°16' E 005°05'612.9
2017-Jul-09 12:30N 37°16' E 005°13'613.0
2017-Jul-09 12:01N 37°17' E 005°21'713.5
2017-Jul-09 11:30N 37°18' E 005°30'713.7
2017-Jul-09 11:00N 37°19' E 005°38'813.8
2017-Jul-09 10:27N 37°21' E 005°47'713.6
2017-Jul-09 09:57N 37°22' E 005°56'613.3
2017-Jul-09 09:31N 37°23' E 006°03'8212.9
2017-Jul-09 03:09N 37°35' E 007°46'212.9
2017-Jul-09 03:01N 37°35' E 007°48'712.9
2017-Jul-09 02:30N 37°37' E 007°56'1113.2
2017-Jul-09 01:42N 37°38' E 008°09'313.3
2017-Jul-09 01:28N 37°39' E 008°13'  
Track history (hours):
 
Tides and Currents Weather Stations Pressure Air Temp Water Temp Dewpoint Dewpoint Depression Visibility Wind Speed Wind Dir Waves Ship Positions

Maersk Bulan

Last reported at 2017-Jul-19 01:20 UTC. Time now 2017-Jul-28 04:46 UTC.
Position N 34°23' W 012°31'.
Warning: this ship's position is 9 days out of date.

Length 223 m; draft 9.2 m.

Type: Ship (hazmat cat A). MMSI: 563455000.

Date/timePositionNaut miles runAvg speedWind from/ knotsBaromVisibWave heightAir tempDewpointWater temp
2017-Jul-19 01:20N 34°23' W 012°31'5417.0
2017-Jul-18 22:10N 34°39' W 011°28'316.7
2017-Jul-18 21:59N 34°40' W 011°25'5816.7
2017-Jul-18 18:32N 34°57' W 010°18'917.6
2017-Jul-18 18:01N 34°60' W 010°07'019.1
2017-Jul-18 18:00N 34°60' W 010°07'3820.0
2017-Jul-18 16:06N 35°11' W 009°22'220.3
2017-Jul-18 16:00N 35°12' W 009°20'1020.1
2017-Jul-18 15:29N 35°15' W 009°08'1219.9
2017-Jul-18 14:54N 35°18' W 008°54'1819.8
2017-Jul-18 14:00N 35°24' W 008°34'1019.9
2017-Jul-18 13:30N 35°27' W 008°22'4920.0
2017-Jul-18 11:04N 35°41' W 007°25'9120.0
2017-Jul-18 06:31N 35°57' W 005°34'119.3
2017-Jul-18 06:28N 35°57' W 005°33'5 6.5
2017-Jul-18 05:47N 35°54' W 005°30'0 0.1
2017-Jul-17 20:27N 35°53' W 005°30'3 3.6
2017-Jul-17 19:43N 35°55' W 005°33'1 4.9
2017-Jul-17 19:26N 35°54' W 005°34'0 0.4
2017-Jul-17 18:42N 35°54' W 005°34'1 1.2
2017-Jul-17 18:04N 35°55' W 005°34'1 5.4
2017-Jul-17 17:49N 35°56' W 005°35'2 5.3
2017-Jul-17 17:22N 35°57' W 005°33'2 6.0
2017-Jul-17 17:00N 35°58' W 005°30'4 7.2
2017-Jul-17 16:30N 35°59' W 005°26'4 7.0
2017-Jul-17 16:00N 35°59' W 005°22'612.7
2017-Jul-17 15:30N 35°57' W 005°14'4 1.9
2017-Jul-17 13:38N 35°55' W 005°11'  
2017-Jul-10 10:17N 36°32' W 000°47'1313.2
2017-Jul-10 09:20N 36°35' W 000°31'513.2
2017-Jul-10 08:58N 36°35' W 000°25'714.6
2017-Jul-10 08:28N 36°36' W 000°16'714.6
2017-Jul-10 07:59N 36°37' W 000°07'613.3
2017-Jul-10 07:29N 36°38' E 000°01'613.3
2017-Jul-10 07:00N 36°39' E 000°09'713.4
2017-Jul-10 06:30N 36°40' E 000°17'713.1
2017-Jul-10 06:00N 36°41' E 000°25'713.2
2017-Jul-10 05:30N 36°42' E 000°33'713.6
2017-Jul-10 05:00N 36°43' E 000°41'714.0
2017-Jul-10 04:30N 36°45' E 000°50'713.7
2017-Jul-10 03:59N 36°45' E 000°59'613.5
2017-Jul-10 03:30N 36°46' E 001°07'713.3
2017-Jul-10 03:00N 36°47' E 001°15'713.3
2017-Jul-10 02:30N 36°48' E 001°23'713.4
2017-Jul-10 02:00N 36°49' E 001°31'713.3
2017-Jul-10 01:30N 36°51' E 001°40'713.4
2017-Jul-10 01:00N 36°52' E 001°48'713.5
2017-Jul-10 00:30N 36°53' E 001°56'713.6
2017-Jul-09 23:59N 36°54' E 002°05'713.5
2017-Jul-09 23:30N 36°54' E 002°13'713.5
2017-Jul-09 23:00N 36°56' E 002°21'713.4
2017-Jul-09 22:30N 36°57' E 002°29'713.4
2017-Jul-09 22:00N 36°59' E 002°38'713.2
2017-Jul-09 21:30N 36°60' E 002°46'612.4
2017-Jul-09 21:00N 36°60' E 002°54'713.6
2017-Jul-09 20:30N 37°01' E 003°02'713.3
2017-Jul-09 20:00N 37°02' E 003°10'713.6
2017-Jul-09 19:30N 37°03' E 003°19'1913.7
2017-Jul-09 18:07N 37°05' E 003°42'113.2
2017-Jul-09 18:00N 37°06' E 003°44'713.3
2017-Jul-09 17:30N 37°07' E 003°52'713.4
2017-Jul-09 17:00N 37°08' E 004°01'713.3
2017-Jul-09 16:31N 37°09' E 004°09'713.1
2017-Jul-09 16:01N 37°09' E 004°17'713.1
2017-Jul-09 15:31N 37°11' E 004°25'612.9
2017-Jul-09 15:00N 37°12' E 004°33'713.0
2017-Jul-09 14:30N 37°13' E 004°41'713.0
2017-Jul-09 14:00N 37°14' E 004°49'612.9
2017-Jul-09 13:30N 37°16' E 004°57'612.6
2017-Jul-09 13:00N 37°16' E 005°05'612.9
2017-Jul-09 12:30N 37°16' E 005°13'613.0
2017-Jul-09 12:01N 37°17' E 005°21'713.5
2017-Jul-09 11:30N 37°18' E 005°30'713.7
2017-Jul-09 11:00N 37°19' E 005°38'813.8
2017-Jul-09 10:27N 37°21' E 005°47'713.6
2017-Jul-09 09:57N 37°22' E 005°56'613.3
2017-Jul-09 09:31N 37°23' E 006°03'8212.9
2017-Jul-09 03:09N 37°35' E 007°46'212.9
2017-Jul-09 03:01N 37°35' E 007°48'712.9
2017-Jul-09 02:30N 37°37' E 007°56'1113.2
2017-Jul-09 01:42N 37°38' E 008°09'313.3
2017-Jul-09 01:28N 37°39' E 008°13'  

Dump ship's entire track history